Time;durP1;ratioP1;P1;durP2;ratioP2;P2;SDS_P1;SDS_P2;PMS_P1;PMS_P2;Temp;Humidity;BMP_temperature;BMP_pressure;BME280_temperature;BME280_humidity;BME280_pressure;Samples;Min_cycle;Max_cycle;Signal;HPM_P1;HPM_P2
2023/12/22 00:04:24;;;;;;;;;;;16.60;62.90;;;;;;10270043;28;94629;-47
2023/12/22 00:09:26;;;;;;;;;;;16.60;62.80;;;;;;10270708;28;94430;-49
2023/12/22 00:14:28;;;;;;;;;;;16.60;62.90;;;;;;10274608;28;93639;-49
2023/12/22 00:19:29;;;;;;;;;;;16.50;62.80;;;;;;10280687;28;94488;-47
2023/12/22 00:24:31;;;;;;;;;;;16.50;62.70;;;;;;10290461;28;94987;-44
2023/12/22 00:29:35;;;;;;;;;;;16.50;62.70;;;;;;10278884;28;97130;-48
2023/12/22 00:34:37;;;;;;;;;;;16.50;62.70;;;;;;10255736;28;94409;-49
2023/12/22 00:39:39;;;;;;;;;;;16.40;62.60;;;;;;10280722;28;94629;-51
2023/12/22 00:44:41;;;;;;;;;;;16.40;62.60;;;;;;10282176;28;93238;-45
2023/12/22 00:49:43;;;;;;;;;;;16.40;62.60;;;;;;10271245;28;94467;-45
2023/12/22 00:54:45;;;;;;;;;;;16.40;62.60;;;;;;10288559;28;94605;-48
2023/12/22 00:59:47;;;;;;;;;;;16.40;62.60;;;;;;10284342;28;94067;-45
2023/12/22 01:04:49;;;;;;;;;;;16.40;62.60;;;;;;10269957;28;93938;-46
2023/12/22 01:09:52;;;;;;;;;;;16.30;62.50;;;;;;10284542;28;93195;-48
2023/12/22 01:14:54;;;;;;;;;;;16.30;62.60;;;;;;10271593;28;93792;-47
2023/12/22 01:19:56;;;;;;;;;;;16.30;62.60;;;;;;10268490;28;97362;-50
2023/12/22 01:24:58;;;;;;;;;;;16.30;62.60;;;;;;10268023;28;93835;-45
2023/12/22 01:30:00;;;;;;;;;;;16.30;62.60;;;;;;10271039;28;94460;-46
2023/12/22 01:35:06;;;;;;;;;;;16.30;62.60;;;;;;10259472;28;95691;-47
2023/12/22 01:40:08;;;;;;;;;;;16.30;62.70;;;;;;10277332;28;93439;-44
2023/12/22 01:45:10;;;;;;;;;;;16.30;62.50;;;;;;10275968;28;94187;-45
2023/12/22 01:50:13;;;;;;;;;;;16.30;62.50;;;;;;10254538;28;94588;-45
2023/12/22 01:55:17;;;;;;;;;;;16.30;62.30;;;;;;10259605;28;92691;-49
2023/12/22 02:05:37;;;;;;;;;;;16.30;62.30;;;;;;8837235;22;96846;-53
2023/12/22 02:10:39;;;;;;;;;;;16.30;62.40;;;;;;10266632;28;97483;-50
2023/12/22 02:15:41;;;;;;;;;;;16.30;62.40;;;;;;10289438;28;93837;-52
2023/12/22 02:20:44;;;;;;;;;;;16.30;62.40;;;;;;10281127;28;93478;-49
2023/12/22 02:25:45;;;;;;;;;;;16.20;62.30;;;;;;10262963;28;93312;-52
2023/12/22 02:30:50;;;;;;;;;;;16.20;62.40;;;;;;10266614;28;94253;-52
2023/12/22 02:35:53;;;;;;;;;;;16.20;62.30;;;;;;10277045;28;93432;-51
2023/12/22 02:40:56;;;;;;;;;;;16.20;62.30;;;;;;10268395;28;94999;-53
2023/12/22 02:45:57;;;;;;;;;;;16.20;62.40;;;;;;10324412;28;92677;-52
2023/12/22 02:50:59;;;;;;;;;;;16.10;62.20;;;;;;10316748;28;93460;-51
2023/12/22 02:56:02;;;;;;;;;;;16.10;62.30;;;;;;10308497;28;93867;-50
2023/12/22 03:01:04;;;;;;;;;;;16.10;62.20;;;;;;10299419;28;97198;-50
2023/12/22 03:06:06;;;;;;;;;;;16.10;62.20;;;;;;10301655;28;93467;-52
2023/12/22 03:11:07;;;;;;;;;;;16.20;62.30;;;;;;10321652;28;94515;-53
2023/12/22 03:16:09;;;;;;;;;;;16.30;61.90;;;;;;10303966;28;93418;-51
2023/12/22 03:21:18;;;;;;;;;;;16.30;61.60;;;;;;10323554;28;94446;-53
2023/12/22 03:26:20;;;;;;;;;;;16.30;61.40;;;;;;10282333;28;94620;-51
2023/12/22 03:31:22;;;;;;;;;;;16.30;61.40;;;;;;10302952;28;94254;-50
2023/12/22 03:36:24;;;;;;;;;;;16.30;61.40;;;;;;10295470;28;93676;-50
2023/12/22 03:41:25;;;;;;;;;;;16.30;61.30;;;;;;10313720;28;94565;-51
2023/12/22 03:46:27;;;;;;;;;;;16.30;61.50;;;;;;10295642;28;93902;-52
2023/12/22 03:51:29;;;;;;;;;;;16.30;61.50;;;;;;10300477;28;95662;-51
2023/12/22 03:56:31;;;;;;;;;;;16.20;61.50;;;;;;10316754;28;93980;-51
2023/12/22 04:01:33;;;;;;;;;;;16.20;61.50;;;;;;10311784;28;93113;-50
2023/12/22 04:06:38;;;;;;;;;;;16.20;61.50;;;;;;10303372;28;94497;-50
2023/12/22 04:11:41;;;;;;;;;;;16.20;61.60;;;;;;10310996;28;94691;-50
2023/12/22 04:16:43;;;;;;;;;;;16.10;61.70;;;;;;10305999;28;93378;-50
2023/12/22 04:21:44;;;;;;;;;;;16.10;61.70;;;;;;10311330;28;92788;-50
2023/12/22 04:26:46;;;;;;;;;;;16.10;61.70;;;;;;10300377;28;94205;-50
2023/12/22 04:31:48;;;;;;;;;;;16.10;61.80;;;;;;10314183;28;94038;-50
2023/12/22 04:36:50;;;;;;;;;;;16.00;61.80;;;;;;10300034;28;94418;-70
2023/12/22 04:41:52;;;;;;;;;;;16.00;61.80;;;;;;10289097;28;96096;-52
2023/12/22 04:46:54;;;;;;;;;;;16.00;61.90;;;;;;10290076;28;93465;-47
2023/12/22 04:51:56;;;;;;;;;;;16.10;61.90;;;;;;10303079;28;94454;-53
2023/12/22 04:57:01;;;;;;;;;;;16.20;61.60;;;;;;10308582;28;93557;-51
2023/12/22 05:02:03;;;;;;;;;;;16.20;61.40;;;;;;10313249;28;94744;-50
2023/12/22 05:07:06;;;;;;;;;;;16.20;61.30;;;;;;10308230;28;93306;-50
2023/12/22 05:12:08;;;;;;;;;;;16.20;61.10;;;;;;10295761;28;93502;-52
2023/12/22 05:17:10;;;;;;;;;;;16.20;61.10;;;;;;10313821;28;93929;-53
2023/12/22 05:22:12;;;;;;;;;;;16.20;61.10;;;;;;10304485;28;94410;-52
2023/12/22 05:27:14;;;;;;;;;;;16.20;61.10;;;;;;10310918;28;93504;-52
2023/12/22 05:32:16;;;;;;;;;;;16.20;61.10;;;;;;10308597;28;95835;-52
2023/12/22 05:37:18;;;;;;;;;;;16.20;61.20;;;;;;10324768;28;94602;-47
2023/12/22 05:42:20;;;;;;;;;;;16.20;61.20;;;;;;10306676;28;93369;-48
2023/12/22 05:47:21;;;;;;;;;;;16.20;61.30;;;;;;10329920;28;94526;-49
2023/12/22 05:52:23;;;;;;;;;;;16.30;61.40;;;;;;10311558;28;93290;-50
2023/12/22 05:57:25;;;;;;;;;;;16.50;61.10;;;;;;10316809;28;94386;-51
2023/12/22 06:02:27;;;;;;;;;;;16.70;60.80;;;;;;10299556;28;93799;-51
2023/12/22 06:07:29;;;;;;;;;;;16.90;60.30;;;;;;10300092;28;93013;-50
2023/12/22 06:12:31;;;;;;;;;;;16.90;60.20;;;;;;10312175;28;93404;-48
2023/12/22 06:17:32;;;;;;;;;;;16.90;60.10;;;;;;10313067;28;93494;-48
2023/12/22 06:22:34;;;;;;;;;;;16.90;60.10;;;;;;10304072;28;95794;-51
2023/12/22 06:27:37;;;;;;;;;;;16.90;60.30;;;;;;10301525;28;94040;-53
2023/12/22 06:32:40;;;;;;;;;;;16.80;60.30;;;;;;10302984;28;94462;-51
2023/12/22 06:37:43;;;;;;;;;;;16.80;60.40;;;;;;10303060;28;93844;-51
2023/12/22 06:42:45;;;;;;;;;;;16.80;60.50;;;;;;10323825;28;94060;-53
2023/12/22 06:47:46;;;;;;;;;;;16.70;60.50;;;;;;10311424;28;93893;-54
2023/12/22 06:52:49;;;;;;;;;;;16.70;60.60;;;;;;10302699;28;93535;-51
2023/12/22 06:57:51;;;;;;;;;;;16.70;60.80;;;;;;10311745;28;93545;-55
2023/12/22 07:02:53;;;;;;;;;;;16.60;62.20;;;;;;10319710;28;93923;-51
2023/12/22 07:07:55;;;;;;;;;;;16.60;62.70;;;;;;10319091;28;94845;-48
2023/12/22 07:12:57;;;;;;;;;;;16.60;63.20;;;;;;10296997;28;95777;-47
2023/12/22 07:17:59;;;;;;;;;;;16.70;64.20;;;;;;10312934;28;94633;-49
2023/12/22 07:23:01;;;;;;;;;;;16.80;63.60;;;;;;10322764;28;93420;-53
2023/12/22 07:28:04;;;;;;;;;;;16.80;63.90;;;;;;10317713;28;92578;-49
2023/12/22 07:33:06;;;;;;;;;;;16.90;64.10;;;;;;10320816;28;93550;-49
2023/12/22 07:38:09;;;;;;;;;;;17.00;63.80;;;;;;10301906;28;93567;-51
2023/12/22 07:43:11;;;;;;;;;;;17.00;63.60;;;;;;10304579;28;94905;-52
2023/12/22 07:48:13;;;;;;;;;;;17.00;63.60;;;;;;10293822;28;92692;-50
2023/12/22 07:53:15;;;;;;;;;;;17.00;63.70;;;;;;10291234;28;94429;-50
2023/12/22 07:58:19;;;;;;;;;;;17.00;63.70;;;;;;10304724;28;94286;-52
2023/12/22 08:03:21;;;;;;;;;;;16.90;63.70;;;;;;10312575;28;97177;-53
2023/12/22 08:08:23;;;;;;;;;;;16.90;63.70;;;;;;10306167;28;94431;-53
2023/12/22 08:13:27;;;;;;;;;;;16.90;63.50;;;;;;10297073;28;114907;-51
2023/12/22 08:18:29;;;;;;;;;;;16.90;63.40;;;;;;10301926;28;94934;-52
2023/12/22 08:23:32;;;;;;;;;;;16.90;63.30;;;;;;10324722;28;94654;-52
2023/12/22 08:28:39;;;;;;;;;;;16.90;63.30;;;;;;10293297;28;94655;-50
2023/12/22 08:33:43;;;;;;;;;;;16.90;63.40;;;;;;10299276;28;92658;-50
2023/12/22 08:38:45;;;;;;;;;;;16.80;63.40;;;;;;10302463;28;93953;-52
2023/12/22 08:43:47;;;;;;;;;;;16.80;63.40;;;;;;10308031;28;94015;-53
2023/12/22 08:48:49;;;;;;;;;;;16.80;63.20;;;;;;10299048;28;94692;-62
2023/12/22 08:53:52;;;;;;;;;;;16.90;63.10;;;;;;10306779;28;96511;-49
2023/12/22 08:58:55;;;;;;;;;;;16.90;63.90;;;;;;10319076;28;95312;-49
2023/12/22 09:03:57;;;;;;;;;;;16.90;63.00;;;;;;10299923;28;94050;-53
2023/12/22 09:08:59;;;;;;;;;;;16.80;63.10;;;;;;10310822;28;93490;-50
2023/12/22 09:14:01;;;;;;;;;;;16.90;63.30;;;;;;10314053;28;97269;-51
2023/12/22 09:19:03;;;;;;;;;;;16.90;63.20;;;;;;10299764;28;93501;-52
2023/12/22 09:24:05;;;;;;;;;;;16.90;63.10;;;;;;10320234;28;93696;-53
2023/12/22 09:29:07;;;;;;;;;;;17.00;63.10;;;;;;10300655;28;92761;-52
2023/12/22 09:34:08;;;;;;;;;;;17.00;63.10;;;;;;10311977;28;94520;-50
2023/12/22 09:39:11;;;;;;;;;;;16.90;63.10;;;;;;10311082;28;93434;-52
2023/12/22 09:44:13;;;;;;;;;;;16.90;63.30;;;;;;10294579;28;95823;-50
2023/12/22 09:49:18;;;;;;;;;;;16.90;63.30;;;;;;10303682;28;93452;-51
2023/12/22 09:54:20;;;;;;;;;;;17.00;63.10;;;;;;10301422;28;94814;-53
2023/12/22 09:59:22;;;;;;;;;;;17.00;63.10;;;;;;10300686;28;93467;-52
2023/12/22 10:04:24;;;;;;;;;;;17.00;63.10;;;;;;10322201;28;93906;-51
2023/12/22 10:09:26;;;;;;;;;;;17.00;63.10;;;;;;10321676;28;94635;-52
2023/12/22 10:14:29;;;;;;;;;;;17.00;63.20;;;;;;10295297;28;93454;-51
2023/12/22 10:19:31;;;;;;;;;;;17.00;63.40;;;;;;10295218;28;92743;-52
2023/12/22 10:24:42;;;;;;;;;;;16.90;63.40;;;;;;10301840;28;94744;-51
2023/12/22 10:29:44;;;;;;;;;;;17.00;63.30;;;;;;10309119;28;93497;-49
2023/12/22 10:34:46;;;;;;;;;;;17.10;63.30;;;;;;10312589;28;96077;-51
2023/12/22 10:39:51;;;;;;;;;;;17.00;63.20;;;;;;10318742;28;93371;-52
2023/12/22 10:44:53;;;;;;;;;;;17.00;63.40;;;;;;10317462;28;94159;-53
2023/12/22 10:49:54;;;;;;;;;;;17.10;63.40;;;;;;10308214;28;94528;-54
2023/12/22 10:54:57;;;;;;;;;;;17.20;63.20;;;;;;10317500;28;94154;-53
2023/12/22 10:59:59;;;;;;;;;;;17.50;63.00;;;;;;10317711;28;93913;-52
2023/12/22 11:05:01;;;;;;;;;;;17.60;62.50;;;;;;10290561;28;94628;-49
2023/12/22 11:10:06;;;;;;;;;;;17.70;62.30;;;;;;10306765;28;93088;-53
2023/12/22 11:15:08;;;;;;;;;;;17.90;62.00;;;;;;10306895;28;93370;-52
2023/12/22 11:20:12;;;;;;;;;;;18.00;61.60;;;;;;10309965;28;93901;-49
2023/12/22 11:25:15;;;;;;;;;;;18.10;61.50;;;;;;10292850;28;96088;-51
2023/12/22 11:30:18;;;;;;;;;;;18.00;61.50;;;;;;10319553;28;93923;-52
2023/12/22 11:35:22;;;;;;;;;;;18.00;61.50;;;;;;10311847;28;93411;-52
2023/12/22 11:40:33;;;;;;;;;;;18.00;61.60;;;;;;10316518;28;94387;-52
2023/12/22 11:45:35;;;;;;;;;;;18.00;61.50;;;;;;10314499;28;93547;-51
2023/12/22 11:50:37;;;;;;;;;;;18.00;61.50;;;;;;10307173;28;94584;-49
2023/12/22 11:55:58;;;;;;;;;;;17.90;61.50;;;;;;10300183;28;94455;-53
2023/12/22 12:01:04;;;;;;;;;;;17.90;62.80;;;;;;10313989;28;92667;-54
2023/12/22 12:06:12;;;;;;;;;;;17.90;61.80;;;;;;10296287;28;94940;-50
2023/12/22 12:11:14;;;;;;;;;;;17.90;61.70;;;;;;10320735;28;94056;-51
2023/12/22 12:16:21;;;;;;;;;;;17.90;61.80;;;;;;10302317;28;95788;-53
2023/12/22 12:21:23;;;;;;;;;;;17.80;63.50;;;;;;10317873;28;93911;-52
2023/12/22 12:26:25;;;;;;;;;;;17.90;64.40;;;;;;10298695;28;93430;-50
2023/12/22 12:31:41;;;;;;;;;;;18.00;63.40;;;;;;10326241;28;94692;-51
2023/12/22 12:36:44;;;;;;;;;;;18.10;65.00;;;;;;10325182;28;94689;-51
2023/12/22 12:41:49;;;;;;;;;;;18.00;68.50;;;;;;10301174;28;94040;-48
2023/12/22 12:46:51;;;;;;;;;;;18.10;71.10;;;;;;10314229;28;94093;-53
2023/12/22 12:51:53;;;;;;;;;;;18.10;71.00;;;;;;10302627;28;93885;-51
2023/12/22 12:56:55;;;;;;;;;;;18.30;71.50;;;;;;10316746;28;94620;-49
2023/12/22 13:01:57;;;;;;;;;;;18.30;68.60;;;;;;10306905;28;93951;-51
2023/12/22 13:06:59;;;;;;;;;;;18.20;68.10;;;;;;10306507;28;96357;-46
2023/12/22 13:12:02;;;;;;;;;;;18.30;68.00;;;;;;10312606;28;93394;-53
2023/12/22 13:17:05;;;;;;;;;;;18.30;66.80;;;;;;10311803;28;93367;-52
2023/12/22 13:22:07;;;;;;;;;;;18.40;65.80;;;;;;10313535;28;94364;-53
2023/12/22 13:27:10;;;;;;;;;;;18.40;67.50;;;;;;10304041;28;93585;-51
2023/12/22 13:32:16;;;;;;;;;;;18.40;66.60;;;;;;10311379;28;93277;-52
2023/12/22 13:37:18;;;;;;;;;;;18.40;65.90;;;;;;10299259;28;95991;-54
2023/12/22 13:42:21;;;;;;;;;;;18.30;65.30;;;;;;10301160;28;92663;-51
2023/12/22 13:47:24;;;;;;;;;;;18.30;65.00;;;;;;10304059;28;93447;-53
2023/12/22 13:52:34;;;;;;;;;;;18.30;64.90;;;;;;10308925;28;94530;-51
2023/12/22 13:57:36;;;;;;;;;;;18.20;64.60;;;;;;10295025;28;96044;-52
2023/12/22 14:02:39;;;;;;;;;;;18.20;64.20;;;;;;10319901;28;93767;-54
2023/12/22 14:07:42;;;;;;;;;;;18.20;64.40;;;;;;10319607;28;92934;-54
2023/12/22 14:12:44;;;;;;;;;;;18.20;64.50;;;;;;10304506;28;94538;-53
2023/12/22 14:17:46;;;;;;;;;;;18.20;64.50;;;;;;10316083;28;93514;-55
2023/12/22 14:22:49;;;;;;;;;;;18.30;65.30;;;;;;10311641;28;94487;-52
2023/12/22 14:27:52;;;;;;;;;;;18.30;65.20;;;;;;10317193;28;92938;-52
2023/12/22 14:32:54;;;;;;;;;;;18.30;65.00;;;;;;10311869;28;93995;-52
2023/12/22 14:37:56;;;;;;;;;;;18.20;64.80;;;;;;10315081;28;94244;-54
2023/12/22 14:42:59;;;;;;;;;;;18.20;64.70;;;;;;10321682;28;95239;-55
2023/12/22 14:48:00;;;;;;;;;;;18.20;64.30;;;;;;10309830;28;96851;-73
2023/12/22 14:53:02;;;;;;;;;;;18.20;64.40;;;;;;10313468;28;93379;-54
2023/12/22 14:58:06;;;;;;;;;;;18.20;64.30;;;;;;10322219;28;94479;-55
2023/12/22 15:03:08;;;;;;;;;;;18.20;64.30;;;;;;10310865;28;94337;-47
2023/12/22 15:08:10;;;;;;;;;;;18.20;65.80;;;;;;10317511;28;93458;-50
2023/12/22 15:13:13;;;;;;;;;;;18.20;65.30;;;;;;10324617;28;93680;-50
2023/12/22 15:18:14;;;;;;;;;;;18.20;64.80;;;;;;10302338;28;94665;-48
2023/12/22 15:23:17;;;;;;;;;;;18.20;64.70;;;;;;10317560;28;92999;-47
2023/12/22 15:28:19;;;;;;;;;;;18.30;65.40;;;;;;10299165;28;93282;-50
2023/12/22 15:33:21;;;;;;;;;;;18.40;65.60;;;;;;10293565;28;94504;-46
2023/12/22 15:38:23;;;;;;;;;;;18.50;65.30;;;;;;10313270;28;95911;-49
2023/12/22 15:43:25;;;;;;;;;;;18.50;65.20;;;;;;10316833;28;92573;-52
2023/12/22 15:48:32;;;;;;;;;;;18.50;64.70;;;;;;10313762;28;94359;-46
2023/12/22 15:53:36;;;;;;;;;;;18.50;64.70;;;;;;10315882;28;93798;-51
2023/12/22 15:58:40;;;;;;;;;;;18.60;64.60;;;;;;10307054;28;93340;-55
2023/12/22 16:03:42;;;;;;;;;;;18.60;64.80;;;;;;10299197;28;94672;-57
2023/12/22 16:08:44;;;;;;;;;;;18.60;65.00;;;;;;10313299;28;93856;-55
2023/12/22 16:13:46;;;;;;;;;;;18.60;65.20;;;;;;10295882;28;92688;-53
2023/12/22 16:18:48;;;;;;;;;;;18.60;65.50;;;;;;10318318;28;94714;-47
2023/12/22 16:23:50;;;;;;;;;;;18.80;67.00;;;;;;10306689;28;93485;-48
2023/12/22 16:28:51;;;;;;;;;;;19.00;65.30;;;;;;10319701;28;97018;-52
2023/12/22 16:33:53;;;;;;;;;;;19.00;65.30;;;;;;10313799;28;95021;-52
2023/12/22 16:38:55;;;;;;;;;;;19.00;65.70;;;;;;10320426;28;93969;-50
2023/12/22 16:43:57;;;;;;;;;;;19.10;66.60;;;;;;10303987;28;93592;-62
2023/12/22 16:48:59;;;;;;;;;;;19.20;67.80;;;;;;10309920;28;93904;-49
2023/12/22 16:54:02;;;;;;;;;;;19.10;68.60;;;;;;10321337;28;94000;-52
2023/12/22 16:59:04;;;;;;;;;;;19.00;68.60;;;;;;10313842;28;94168;-49
2023/12/22 17:04:06;;;;;;;;;;;19.00;67.50;;;;;;10313998;28;93293;-53
2023/12/22 17:09:08;;;;;;;;;;;18.90;68.30;;;;;;10312002;28;94570;-51
2023/12/22 17:14:11;;;;;;;;;;;18.90;67.30;;;;;;10317687;28;93733;-47
2023/12/22 17:19:12;;;;;;;;;;;18.90;67.40;;;;;;10310072;28;96263;-49
2023/12/22 17:24:14;;;;;;;;;;;18.90;67.70;;;;;;10320708;28;93487;-52
2023/12/22 17:29:16;;;;;;;;;;;18.80;67.60;;;;;;10318407;28;93262;-53
2023/12/22 17:34:18;;;;;;;;;;;18.90;67.40;;;;;;10311846;28;94052;-49
2023/12/22 17:39:20;;;;;;;;;;;18.90;67.10;;;;;;10305839;28;93439;-52
2023/12/22 17:44:23;;;;;;;;;;;18.90;67.00;;;;;;10324714;28;94218;-53
2023/12/22 17:49:24;;;;;;;;;;;18.90;67.10;;;;;;10324290;28;93728;-51
2023/12/22 17:54:26;;;;;;;;;;;18.80;67.10;;;;;;10310002;28;92395;-52
2023/12/22 17:59:28;;;;;;;;;;;18.80;67.00;;;;;;10314572;28;93464;-51
2023/12/22 18:04:30;;;;;;;;;;;18.80;66.90;;;;;;10306471;28;94152;-51
2023/12/22 18:09:32;;;;;;;;;;;18.70;66.80;;;;;;10299769;28;96767;-52
2023/12/22 18:14:34;;;;;;;;;;;18.70;67.00;;;;;;10328163;28;93766;-50
2023/12/22 18:19:36;;;;;;;;;;;18.70;67.00;;;;;;10316347;28;94743;-53
2023/12/22 18:24:38;;;;;;;;;;;18.70;67.00;;;;;;10313243;28;92792;-52
2023/12/22 18:29:40;;;;;;;;;;;18.80;66.80;;;;;;10314997;28;93586;-52
2023/12/22 18:34:41;;;;;;;;;;;18.70;66.50;;;;;;10317213;28;93600;-50
2023/12/22 18:39:43;;;;;;;;;;;18.70;66.40;;;;;;10320949;28;93388;-51
2023/12/22 18:44:45;;;;;;;;;;;18.70;66.50;;;;;;10328322;28;92565;-51
2023/12/22 18:49:48;;;;;;;;;;;18.70;66.50;;;;;;10309360;28;93442;-51
2023/12/22 18:54:50;;;;;;;;;;;18.70;66.40;;;;;;10302116;28;94574;-52
2023/12/22 18:59:55;;;;;;;;;;;18.70;66.50;;;;;;10316529;28;96910;-52
2023/12/22 19:04:57;;;;;;;;;;;18.60;66.40;;;;;;10316032;28;93517;-53
2023/12/22 19:09:59;;;;;;;;;;;18.60;67.60;;;;;;10308667;28;93498;-52
2023/12/22 19:15:01;;;;;;;;;;;18.70;67.20;;;;;;10310205;28;93958;-52
2023/12/22 19:20:04;;;;;;;;;;;18.70;66.70;;;;;;10307237;28;95544;-51
2023/12/22 19:25:06;;;;;;;;;;;18.80;66.40;;;;;;10311533;28;94224;-49
2023/12/22 19:30:09;;;;;;;;;;;18.90;66.10;;;;;;10302421;28;94206;-48
2023/12/22 19:35:10;;;;;;;;;;;18.90;65.90;;;;;;10305893;28;92729;-52
2023/12/22 19:40:13;;;;;;;;;;;18.90;65.90;;;;;;10303269;28;94267;-52
2023/12/22 19:45:15;;;;;;;;;;;18.90;65.90;;;;;;10318284;28;93540;-51
2023/12/22 19:50:17;;;;;;;;;;;18.90;65.90;;;;;;10288054;28;96817;-51
2023/12/22 19:55:19;;;;;;;;;;;18.90;66.20;;;;;;10317773;28;94867;-51
2023/12/22 20:00:25;;;;;;;;;;;18.80;66.40;;;;;;10306954;28;93887;-49
2023/12/22 20:05:27;;;;;;;;;;;18.80;67.40;;;;;;10295220;28;94204;-50
2023/12/22 20:10:30;;;;;;;;;;;18.80;67.20;;;;;;10310641;28;93105;-48
2023/12/22 20:15:32;;;;;;;;;;;18.90;66.90;;;;;;10315111;28;93364;-50
2023/12/22 20:20:34;;;;;;;;;;;18.80;66.80;;;;;;10308841;28;93953;-49
2023/12/22 20:25:36;;;;;;;;;;;18.80;66.70;;;;;;10317762;28;92772;-46
2023/12/22 20:30:39;;;;;;;;;;;18.80;66.70;;;;;;10302035;28;94965;-48
2023/12/22 20:35:40;;;;;;;;;;;18.80;66.40;;;;;;10319984;28;93277;-48
2023/12/22 20:40:42;;;;;;;;;;;18.80;66.30;;;;;;10313549;28;96140;-50
2023/12/22 20:45:46;;;;;;;;;;;18.70;66.10;;;;;;10313826;28;93975;-49
2023/12/22 20:50:48;;;;;;;;;;;18.70;66.10;;;;;;10320711;28;94161;-46
2023/12/22 20:55:50;;;;;;;;;;;18.70;66.20;;;;;;10276960;28;94458;-45
2023/12/22 21:00:52;;;;;;;;;;;18.60;66.50;;;;;;10297585;28;93399;-50
2023/12/22 21:05:57;;;;;;;;;;;18.60;66.50;;;;;;10319954;28;93247;-50
2023/12/22 21:10:59;;;;;;;;;;;18.50;66.60;;;;;;10302647;28;93347;-51
2023/12/22 21:16:05;;;;;;;;;;;18.40;66.70;;;;;;10302131;28;92632;-50
2023/12/22 21:21:07;;;;;;;;;;;18.30;66.80;;;;;;10315221;28;96579;-49
2023/12/22 21:26:17;;;;;;;;;;;18.30;66.80;;;;;;10288053;28;93468;-49
2023/12/22 21:31:19;;;;;;;;;;;18.20;67.00;;;;;;10319461;28;96302;-52
2023/12/22 21:36:22;;;;;;;;;;;18.20;67.20;;;;;;10313194;28;94540;-47
2023/12/22 21:41:25;;;;;;;;;;;18.20;67.20;;;;;;10318822;28;94032;-49
2023/12/22 21:46:26;;;;;;;;;;;18.10;67.30;;;;;;10312867;28;93530;-47
2023/12/22 21:51:28;;;;;;;;;;;18.10;67.40;;;;;;10308425;28;93818;-48
2023/12/22 21:56:30;;;;;;;;;;;18.00;67.40;;;;;;10312228;28;94533;-49
2023/12/22 22:01:32;;;;;;;;;;;18.00;67.40;;;;;;10310227;28;94112;-46
2023/12/22 22:06:35;;;;;;;;;;;18.00;68.40;;;;;;10297351;28;93444;-49
2023/12/22 22:11:37;;;;;;;;;;;18.00;67.60;;;;;;10322548;28;93817;-50
2023/12/22 22:16:40;;;;;;;;;;;18.00;67.60;;;;;;10313053;28;93576;-46
2023/12/22 22:21:42;;;;;;;;;;;17.90;67.60;;;;;;10315794;28;95954;-50
2023/12/22 22:26:44;;;;;;;;;;;17.90;67.70;;;;;;10305621;28;93479;-46
2023/12/22 22:31:45;;;;;;;;;;;17.90;67.70;;;;;;10308824;28;93436;-45
2023/12/22 22:36:48;;;;;;;;;;;17.80;67.80;;;;;;10312211;28;93688;-47
2023/12/22 22:41:50;;;;;;;;;;;17.80;67.70;;;;;;10305214;28;93436;-45
2023/12/22 22:46:52;;;;;;;;;;;17.70;67.70;;;;;;10307909;28;95851;-47
2023/12/22 22:51:54;;;;;;;;;;;17.70;67.80;;;;;;10311420;28;93503;-48
2023/12/22 22:56:56;;;;;;;;;;;17.70;67.70;;;;;;10314388;28;92751;-45
2023/12/22 23:01:57;;;;;;;;;;;17.70;67.80;;;;;;10318717;28;94443;-46
2023/12/22 23:06:59;;;;;;;;;;;17.60;67.70;;;;;;10315415;28;93906;-53
2023/12/22 23:12:01;;;;;;;;;;;17.60;68.70;;;;;;10318637;28;95734;-48
2023/12/22 23:17:03;;;;;;;;;;;17.60;67.70;;;;;;10308710;28;93448;-46
2023/12/22 23:22:05;;;;;;;;;;;17.60;67.70;;;;;;10335953;28;94482;-48
2023/12/22 23:27:07;;;;;;;;;;;17.50;67.60;;;;;;10306937;28;93508;-48
2023/12/22 23:32:09;;;;;;;;;;;17.50;67.70;;;;;;10308853;28;94587;-49
2023/12/22 23:37:11;;;;;;;;;;;17.50;67.50;;;;;;10295639;28;93334;-45
2023/12/22 23:42:13;;;;;;;;;;;17.40;67.50;;;;;;10302155;28;93449;-46
2023/12/22 23:47:15;;;;;;;;;;;17.30;67.40;;;;;;10295542;28;92695;-48
2023/12/22 23:52:17;;;;;;;;;;;17.30;67.30;;;;;;10301060;28;93673;-50
2023/12/22 23:57:21;;;;;;;;;;;17.30;67.40;;;;;;10314254;28;93448;-48
